sensor_id;sensor_type;location;lat;lon;timestamp;temperature;humidity
13589;DHT22;6865;52.552;13.434;2023-08-06T00:00:40;17.50;99.90
13589;DHT22;6865;52.552;13.434;2023-08-06T00:03:07;17.40;99.90
13589;DHT22;6865;52.552;13.434;2023-08-06T00:05:34;17.40;99.90
13589;DHT22;6865;52.552;13.434;2023-08-06T00:08:01;17.30;99.90
13589;DHT22;6865;52.552;13.434;2023-08-06T00:10:28;17.30;99.90
13589;DHT22;6865;52.552;13.434;2023-08-06T00:12:54;17.20;99.90
13589;DHT22;6865;52.552;13.434;2023-08-06T00:15:22;17.20;99.90
13589;DHT22;6865;52.552;13.434;2023-08-06T00:17:48;17.30;99.90
13589;DHT22;6865;52.552;13.434;2023-08-06T00:20:15;17.30;99.90
13589;DHT22;6865;52.552;13.434;2023-08-06T00:22:42;17.20;99.90
13589;DHT22;6865;52.552;13.434;2023-08-06T00:25:08;17.20;99.90
13589;DHT22;6865;52.552;13.434;2023-08-06T00:27:35;17.20;99.90
13589;DHT22;6865;52.552;13.434;2023-08-06T00:30:02;17.20;99.90
13589;DHT22;6865;52.552;13.434;2023-08-06T00:32:29;17.20;99.90
13589;DHT22;6865;52.552;13.434;2023-08-06T00:34:55;17.20;99.90
13589;DHT22;6865;52.552;13.434;2023-08-06T00:37:23;17.10;99.90
13589;DHT22;6865;52.552;13.434;2023-08-06T00:39:49;17.10;99.90
13589;DHT22;6865;52.552;13.434;2023-08-06T00:42:16;17.10;99.90
13589;DHT22;6865;52.552;13.434;2023-08-06T00:44:47;17.00;99.90
13589;DHT22;6865;52.552;13.434;2023-08-06T00:47:14;17.00;99.90
13589;DHT22;6865;52.552;13.434;2023-08-06T00:49:42;17.00;99.90
13589;DHT22;6865;52.552;13.434;2023-08-06T00:52:08;17.00;99.90
13589;DHT22;6865;52.552;13.434;2023-08-06T00:54:36;17.10;99.90
13589;DHT22;6865;52.552;13.434;2023-08-06T00:57:03;16.70;99.90
13589;DHT22;6865;52.552;13.434;2023-08-06T00:59:31;17.20;99.90
13589;DHT22;6865;52.552;13.434;2023-08-06T01:01:59;17.10;99.90
13589;DHT22;6865;52.552;13.434;2023-08-06T01:04:26;17.10;99.90
13589;DHT22;6865;52.552;13.434;2023-08-06T01:10:09;17.10;99.90
13589;DHT22;6865;52.552;13.434;2023-08-06T01:15:43;17.10;99.90
13589;DHT22;6865;52.552;13.434;2023-08-06T01:18:11;17.10;99.90
13589;DHT22;6865;52.552;13.434;2023-08-06T01:20:38;17.20;99.90
13589;DHT22;6865;52.552;13.434;2023-08-06T01:23:04;17.20;99.90
13589;DHT22;6865;52.552;13.434;2023-08-06T01:25:40;17.30;99.90
13589;DHT22;6865;52.552;13.434;2023-08-06T01:28:21;17.20;99.90
13589;DHT22;6865;52.552;13.434;2023-08-06T01:30:50;17.30;99.90
13589;DHT22;6865;52.552;13.434;2023-08-06T01:33:21;17.20;99.90
13589;DHT22;6865;52.552;13.434;2023-08-06T01:35:50;17.20;99.90
13589;DHT22;6865;52.552;13.434;2023-08-06T01:38:17;17.20;99.90
13589;DHT22;6865;52.552;13.434;2023-08-06T01:40:44;17.10;99.90
13589;DHT22;6865;52.552;13.434;2023-08-06T01:43:11;17.10;99.90
13589;DHT22;6865;52.552;13.434;2023-08-06T01:45:37;17.10;99.90
13589;DHT22;6865;52.552;13.434;2023-08-06T01:48:04;17.10;99.90
13589;DHT22;6865;52.552;13.434;2023-08-06T01:50:31;17.10;99.90
13589;DHT22;6865;52.552;13.434;2023-08-06T01:52:57;17.00;99.90
13589;DHT22;6865;52.552;13.434;2023-08-06T01:55:24;15.40;99.90
13589;DHT22;6865;52.552;13.434;2023-08-06T01:57:51;16.90;99.90
13589;DHT22;6865;52.552;13.434;2023-08-06T02:00:17;16.90;99.90
13589;DHT22;6865;52.552;13.434;2023-08-06T02:02:44;17.00;99.90
13589;DHT22;6865;52.552;13.434;2023-08-06T02:05:11;16.90;99.90
13589;DHT22;6865;52.552;13.434;2023-08-06T02:07:37;17.00;99.90
13589;DHT22;6865;52.552;13.434;2023-08-06T02:10:04;16.80;99.90
13589;DHT22;6865;52.552;13.434;2023-08-06T02:12:31;16.90;99.90
13589;DHT22;6865;52.552;13.434;2023-08-06T02:14:58;16.90;99.90
13589;DHT22;6865;52.552;13.434;2023-08-06T02:17:24;16.90;99.90
13589;DHT22;6865;52.552;13.434;2023-08-06T02:19:51;16.90;99.90
13589;DHT22;6865;52.552;13.434;2023-08-06T02:22:18;16.90;99.90
13589;DHT22;6865;52.552;13.434;2023-08-06T02:24:44;16.80;99.90
13589;DHT22;6865;52.552;13.434;2023-08-06T02:27:11;16.70;99.90
13589;DHT22;6865;52.552;13.434;2023-08-06T02:29:40;16.70;99.90
13589;DHT22;6865;52.552;13.434;2023-08-06T02:32:07;16.70;99.90
13589;DHT22;6865;52.552;13.434;2023-08-06T02:34:34;16.50;99.90
13589;DHT22;6865;52.552;13.434;2023-08-06T02:37:00;16.70;99.90
13589;DHT22;6865;52.552;13.434;2023-08-06T02:39:27;16.60;99.90
13589;DHT22;6865;52.552;13.434;2023-08-06T02:41:54;16.60;99.90
13589;DHT22;6865;52.552;13.434;2023-08-06T02:44:21;16.50;99.90
13589;DHT22;6865;52.552;13.434;2023-08-06T02:46:48;16.60;99.90
13589;DHT22;6865;52.552;13.434;2023-08-06T02:49:14;16.50;99.90
13589;DHT22;6865;52.552;13.434;2023-08-06T02:51:41;16.60;99.90
13589;DHT22;6865;52.552;13.434;2023-08-06T02:54:08;16.60;99.90
13589;DHT22;6865;52.552;13.434;2023-08-06T02:56:34;16.70;99.90
13589;DHT22;6865;52.552;13.434;2023-08-06T02:59:01;16.70;99.90
13589;DHT22;6865;52.552;13.434;2023-08-06T03:01:28;16.60;99.90
13589;DHT22;6865;52.552;13.434;2023-08-06T03:03:55;16.60;99.90
13589;DHT22;6865;52.552;13.434;2023-08-06T03:06:21;16.80;99.90
13589;DHT22;6865;52.552;13.434;2023-08-06T03:08:48;16.50;99.90
13589;DHT22;6865;52.552;13.434;2023-08-06T03:11:15;16.60;99.90
13589;DHT22;6865;52.552;13.434;2023-08-06T03:13:41;16.50;99.90
13589;DHT22;6865;52.552;13.434;2023-08-06T03:16:08;16.50;99.90
13589;DHT22;6865;52.552;13.434;2023-08-06T03:18:35;16.50;99.90
13589;DHT22;6865;52.552;13.434;2023-08-06T03:21:01;16.50;99.90
13589;DHT22;6865;52.552;13.434;2023-08-06T03:23:28;16.40;99.90
13589;DHT22;6865;52.552;13.434;2023-08-06T03:25:55;16.40;99.90
13589;DHT22;6865;52.552;13.434;2023-08-06T03:28:21;16.50;99.90
13589;DHT22;6865;52.552;13.434;2023-08-06T03:30:59;16.50;99.90
13589;DHT22;6865;52.552;13.434;2023-08-06T03:33:26;16.40;99.90
13589;DHT22;6865;52.552;13.434;2023-08-06T03:35:52;16.40;99.90
13589;DHT22;6865;52.552;13.434;2023-08-06T03:38:19;16.30;99.90
13589;DHT22;6865;52.552;13.434;2023-08-06T03:40:46;17.10;99.90
13589;DHT22;6865;52.552;13.434;2023-08-06T03:43:13;16.10;99.90
13589;DHT22;6865;52.552;13.434;2023-08-06T03:45:40;16.10;99.90
13589;DHT22;6865;52.552;13.434;2023-08-06T03:48:07;16.10;99.90
13589;DHT22;6865;52.552;13.434;2023-08-06T03:50:34;16.10;99.90
13589;DHT22;6865;52.552;13.434;2023-08-06T03:53:01;16.10;99.90
13589;DHT22;6865;52.552;13.434;2023-08-06T03:55:28;16.10;99.90
13589;DHT22;6865;52.552;13.434;2023-08-06T03:57:54;16.10;99.90
13589;DHT22;6865;52.552;13.434;2023-08-06T04:00:21;16.10;99.90
13589;DHT22;6865;52.552;13.434;2023-08-06T04:02:48;16.10;99.90
13589;DHT22;6865;52.552;13.434;2023-08-06T04:05:16;16.20;99.90
13589;DHT22;6865;52.552;13.434;2023-08-06T04:07:43;16.20;99.90
13589;DHT22;6865;52.552;13.434;2023-08-06T04:10:10;16.30;99.90
13589;DHT22;6865;52.552;13.434;2023-08-06T04:12:36;16.30;99.90
13589;DHT22;6865;52.552;13.434;2023-08-06T04:15:06;16.40;99.90
13589;DHT22;6865;52.552;13.434;2023-08-06T04:17:33;16.30;99.90
13589;DHT22;6865;52.552;13.434;2023-08-06T04:19:59;16.30;99.90
13589;DHT22;6865;52.552;13.434;2023-08-06T04:22:26;16.40;99.90
13589;DHT22;6865;52.552;13.434;2023-08-06T04:24:53;16.30;99.90
13589;DHT22;6865;52.552;13.434;2023-08-06T04:27:20;16.30;99.90
13589;DHT22;6865;52.552;13.434;2023-08-06T04:29:46;16.30;99.90
13589;DHT22;6865;52.552;13.434;2023-08-06T04:32:13;16.30;99.90
13589;DHT22;6865;52.552;13.434;2023-08-06T04:34:40;16.40;99.90
13589;DHT22;6865;52.552;13.434;2023-08-06T04:37:07;16.40;99.90
13589;DHT22;6865;52.552;13.434;2023-08-06T04:39:33;16.40;99.90
13589;DHT22;6865;52.552;13.434;2023-08-06T04:42:00;16.40;99.90
13589;DHT22;6865;52.552;13.434;2023-08-06T04:44:27;16.50;99.90
13589;DHT22;6865;52.552;13.434;2023-08-06T04:46:53;16.50;99.90
13589;DHT22;6865;52.552;13.434;2023-08-06T04:49:20;16.50;99.90
13589;DHT22;6865;52.552;13.434;2023-08-06T04:51:47;16.50;99.90
13589;DHT22;6865;52.552;13.434;2023-08-06T04:54:14;16.40;99.90
13589;DHT22;6865;52.552;13.434;2023-08-06T04:56:41;16.40;99.90
13589;DHT22;6865;52.552;13.434;2023-08-06T04:59:07;16.60;99.90
13589;DHT22;6865;52.552;13.434;2023-08-06T05:01:34;16.50;99.90
13589;DHT22;6865;52.552;13.434;2023-08-06T05:04:01;16.40;99.90
13589;DHT22;6865;52.552;13.434;2023-08-06T05:06:27;16.60;99.90
13589;DHT22;6865;52.552;13.434;2023-08-06T05:08:54;16.50;99.90
13589;DHT22;6865;52.552;13.434;2023-08-06T05:11:21;16.60;99.90
13589;DHT22;6865;52.552;13.434;2023-08-06T05:13:47;16.70;99.90
13589;DHT22;6865;52.552;13.434;2023-08-06T05:16:14;16.60;99.90
13589;DHT22;6865;52.552;13.434;2023-08-06T05:18:41;16.60;99.90
13589;DHT22;6865;52.552;13.434;2023-08-06T05:21:08;16.70;99.90
13589;DHT22;6865;52.552;13.434;2023-08-06T05:23:34;17.50;99.90
13589;DHT22;6865;52.552;13.434;2023-08-06T05:26:01;16.70;99.90
13589;DHT22;6865;52.552;13.434;2023-08-06T05:28:28;16.80;99.90
13589;DHT22;6865;52.552;13.434;2023-08-06T05:30:54;16.70;99.90
13589;DHT22;6865;52.552;13.434;2023-08-06T05:33:21;16.70;99.90
13589;DHT22;6865;52.552;13.434;2023-08-06T05:35:49;16.70;99.90
13589;DHT22;6865;52.552;13.434;2023-08-06T05:38:16;16.80;99.90
13589;DHT22;6865;52.552;13.434;2023-08-06T05:40:43;16.90;99.90
13589;DHT22;6865;52.552;13.434;2023-08-06T05:43:10;16.90;99.90
13589;DHT22;6865;52.552;13.434;2023-08-06T05:45:37;17.00;99.90
13589;DHT22;6865;52.552;13.434;2023-08-06T05:48:04;17.00;99.90
13589;DHT22;6865;52.552;13.434;2023-08-06T05:50:30;17.00;99.90
13589;DHT22;6865;52.552;13.434;2023-08-06T05:52:57;17.00;99.90
13589;DHT22;6865;52.552;13.434;2023-08-06T05:55:27;17.00;99.90
13589;DHT22;6865;52.552;13.434;2023-08-06T05:57:54;17.00;99.90
13589;DHT22;6865;52.552;13.434;2023-08-06T06:00:21;17.00;99.90
13589;DHT22;6865;52.552;13.434;2023-08-06T06:02:48;17.00;99.90
13589;DHT22;6865;52.552;13.434;2023-08-06T06:05:15;17.00;99.90
13589;DHT22;6865;52.552;13.434;2023-08-06T06:07:42;17.10;99.90
13589;DHT22;6865;52.552;13.434;2023-08-06T06:10:09;17.00;99.90
13589;DHT22;6865;52.552;13.434;2023-08-06T06:12:37;17.10;99.90
13589;DHT22;6865;52.552;13.434;2023-08-06T06:15:05;17.10;99.90
13589;DHT22;6865;52.552;13.434;2023-08-06T06:17:32;17.10;99.90
13589;DHT22;6865;52.552;13.434;2023-08-06T06:19:58;15.50;99.90
13589;DHT22;6865;52.552;13.434;2023-08-06T06:22:25;17.20;99.90
13589;DHT22;6865;52.552;13.434;2023-08-06T06:24:52;17.20;99.90
13589;DHT22;6865;52.552;13.434;2023-08-06T06:27:18;17.20;99.90
13589;DHT22;6865;52.552;13.434;2023-08-06T06:29:45;17.20;99.90
13589;DHT22;6865;52.552;13.434;2023-08-06T06:32:12;17.30;99.90
13589;DHT22;6865;52.552;13.434;2023-08-06T06:34:38;17.30;99.90
13589;DHT22;6865;52.552;13.434;2023-08-06T06:37:05;17.30;99.90
13589;DHT22;6865;52.552;13.434;2023-08-06T06:39:32;17.30;99.90
13589;DHT22;6865;52.552;13.434;2023-08-06T06:41:58;17.30;99.90
13589;DHT22;6865;52.552;13.434;2023-08-06T06:44:25;17.30;99.90
13589;DHT22;6865;52.552;13.434;2023-08-06T06:46:52;17.20;99.90
13589;DHT22;6865;52.552;13.434;2023-08-06T06:49:18;17.10;99.90
13589;DHT22;6865;52.552;13.434;2023-08-06T06:51:45;17.20;99.90
13589;DHT22;6865;52.552;13.434;2023-08-06T06:54:12;17.20;99.90
13589;DHT22;6865;52.552;13.434;2023-08-06T06:56:38;17.20;99.90
13589;DHT22;6865;52.552;13.434;2023-08-06T06:59:05;17.20;99.90
13589;DHT22;6865;52.552;13.434;2023-08-06T07:01:32;17.30;99.90
13589;DHT22;6865;52.552;13.434;2023-08-06T07:03:59;17.20;99.90
13589;DHT22;6865;52.552;13.434;2023-08-06T07:06:31;17.20;99.90
13589;DHT22;6865;52.552;13.434;2023-08-06T07:08:58;17.30;99.90
13589;DHT22;6865;52.552;13.434;2023-08-06T07:11:25;17.40;99.90
13589;DHT22;6865;52.552;13.434;2023-08-06T07:13:58;17.40;99.90
13589;DHT22;6865;52.552;13.434;2023-08-06T07:16:26;17.40;99.90
13589;DHT22;6865;52.552;13.434;2023-08-06T07:18:53;17.40;99.90
13589;DHT22;6865;52.552;13.434;2023-08-06T07:21:21;17.50;99.90
13589;DHT22;6865;52.552;13.434;2023-08-06T07:23:47;17.50;99.90
13589;DHT22;6865;52.552;13.434;2023-08-06T07:26:16;17.60;99.90
13589;DHT22;6865;52.552;13.434;2023-08-06T07:28:43;17.70;99.90
13589;DHT22;6865;52.552;13.434;2023-08-06T07:31:11;17.70;99.90
13589;DHT22;6865;52.552;13.434;2023-08-06T07:33:38;17.70;99.90
13589;DHT22;6865;52.552;13.434;2023-08-06T07:36:12;17.70;99.90
13589;DHT22;6865;52.552;13.434;2023-08-06T07:38:39;17.70;99.90
13589;DHT22;6865;52.552;13.434;2023-08-06T07:41:06;17.80;99.90
13589;DHT22;6865;52.552;13.434;2023-08-06T07:43:32;17.80;99.90
13589;DHT22;6865;52.552;13.434;2023-08-06T07:46:00;17.80;99.90
13589;DHT22;6865;52.552;13.434;2023-08-06T07:48:27;17.80;99.90
13589;DHT22;6865;52.552;13.434;2023-08-06T07:50:55;17.80;99.90
13589;DHT22;6865;52.552;13.434;2023-08-06T07:53:22;17.80;99.90
13589;DHT22;6865;52.552;13.434;2023-08-06T07:55:50;17.80;99.90
13589;DHT22;6865;52.552;13.434;2023-08-06T07:58:18;17.80;99.90
13589;DHT22;6865;52.552;13.434;2023-08-06T08:00:46;17.80;99.90
13589;DHT22;6865;52.552;13.434;2023-08-06T08:03:14;17.70;99.90
13589;DHT22;6865;52.552;13.434;2023-08-06T08:05:42;17.60;99.90
13589;DHT22;6865;52.552;13.434;2023-08-06T08:08:09;17.60;99.90
13589;DHT22;6865;52.552;13.434;2023-08-06T08:10:36;17.60;99.90
13589;DHT22;6865;52.552;13.434;2023-08-06T08:13:04;17.80;99.90
13589;DHT22;6865;52.552;13.434;2023-08-06T08:15:32;17.80;99.90
13589;DHT22;6865;52.552;13.434;2023-08-06T08:17:59;17.70;99.90
13589;DHT22;6865;52.552;13.434;2023-08-06T08:20:26;17.90;99.90
13589;DHT22;6865;52.552;13.434;2023-08-06T08:22:59;17.90;99.90
13589;DHT22;6865;52.552;13.434;2023-08-06T08:25:27;18.00;99.90
13589;DHT22;6865;52.552;13.434;2023-08-06T08:27:57;18.20;99.90
13589;DHT22;6865;52.552;13.434;2023-08-06T08:30:24;18.20;99.90
13589;DHT22;6865;52.552;13.434;2023-08-06T08:32:52;18.30;99.90
13589;DHT22;6865;52.552;13.434;2023-08-06T08:35:19;18.20;99.90
13589;DHT22;6865;52.552;13.434;2023-08-06T08:37:45;18.30;99.90
13589;DHT22;6865;52.552;13.434;2023-08-06T08:40:14;18.40;99.90
13589;DHT22;6865;52.552;13.434;2023-08-06T08:42:45;18.40;99.90
13589;DHT22;6865;52.552;13.434;2023-08-06T08:45:14;18.40;99.90
13589;DHT22;6865;52.552;13.434;2023-08-06T08:47:41;18.30;99.90
13589;DHT22;6865;52.552;13.434;2023-08-06T08:50:10;18.10;99.90
13589;DHT22;6865;52.552;13.434;2023-08-06T08:52:38;18.20;99.90
13589;DHT22;6865;52.552;13.434;2023-08-06T08:55:09;18.20;99.90
13589;DHT22;6865;52.552;13.434;2023-08-06T08:57:36;18.40;99.90
13589;DHT22;6865;52.552;13.434;2023-08-06T09:00:04;18.40;99.90
13589;DHT22;6865;52.552;13.434;2023-08-06T09:02:32;18.50;99.90
13589;DHT22;6865;52.552;13.434;2023-08-06T09:05:01;18.60;99.90
13589;DHT22;6865;52.552;13.434;2023-08-06T09:07:35;18.60;99.90
13589;DHT22;6865;52.552;13.434;2023-08-06T09:10:07;18.70;99.90
13589;DHT22;6865;52.552;13.434;2023-08-06T09:12:36;18.80;99.90
13589;DHT22;6865;52.552;13.434;2023-08-06T09:15:03;18.80;99.90
13589;DHT22;6865;52.552;13.434;2023-08-06T09:17:31;18.80;99.90
13589;DHT22;6865;52.552;13.434;2023-08-06T09:19:57;18.90;99.90
13589;DHT22;6865;52.552;13.434;2023-08-06T09:22:24;18.70;99.90
13589;DHT22;6865;52.552;13.434;2023-08-06T09:24:51;18.80;99.90
13589;DHT22;6865;52.552;13.434;2023-08-06T09:27:18;18.80;99.90
13589;DHT22;6865;52.552;13.434;2023-08-06T09:29:45;18.90;99.90
13589;DHT22;6865;52.552;13.434;2023-08-06T09:32:12;18.80;99.90
13589;DHT22;6865;52.552;13.434;2023-08-06T09:34:41;18.80;99.90
13589;DHT22;6865;52.552;13.434;2023-08-06T09:37:11;18.90;99.90
13589;DHT22;6865;52.552;13.434;2023-08-06T09:39:39;18.90;99.90
13589;DHT22;6865;52.552;13.434;2023-08-06T09:42:09;19.00;99.90
13589;DHT22;6865;52.552;13.434;2023-08-06T09:44:36;19.10;99.90
13589;DHT22;6865;52.552;13.434;2023-08-06T09:47:03;19.20;99.90
13589;DHT22;6865;52.552;13.434;2023-08-06T09:52:00;19.20;99.90
13589;DHT22;6865;52.552;13.434;2023-08-06T09:54:27;19.20;99.90
13589;DHT22;6865;52.552;13.434;2023-08-06T09:56:55;19.20;99.90
13589;DHT22;6865;52.552;13.434;2023-08-06T09:59:23;19.30;99.90
13589;DHT22;6865;52.552;13.434;2023-08-06T10:01:51;19.30;99.90
13589;DHT22;6865;52.552;13.434;2023-08-06T10:04:20;19.40;99.90
13589;DHT22;6865;52.552;13.434;2023-08-06T10:06:52;19.40;99.90
13589;DHT22;6865;52.552;13.434;2023-08-06T10:09:19;19.50;99.90
13589;DHT22;6865;52.552;13.434;2023-08-06T10:11:50;19.50;99.90
13589;DHT22;6865;52.552;13.434;2023-08-06T10:14:19;19.50;99.90
13589;DHT22;6865;52.552;13.434;2023-08-06T10:16:47;19.50;99.90
13589;DHT22;6865;52.552;13.434;2023-08-06T10:19:16;19.30;99.90
13589;DHT22;6865;52.552;13.434;2023-08-06T10:22:09;19.30;99.90
13589;DHT22;6865;52.552;13.434;2023-08-06T10:24:49;19.20;99.90
13589;DHT22;6865;52.552;13.434;2023-08-06T10:27:21;19.10;99.90
13589;DHT22;6865;52.552;13.434;2023-08-06T10:29:48;19.20;99.90
13589;DHT22;6865;52.552;13.434;2023-08-06T10:32:18;19.10;99.90
13589;DHT22;6865;52.552;13.434;2023-08-06T10:34:55;19.10;99.90
13589;DHT22;6865;52.552;13.434;2023-08-06T10:37:37;19.10;99.90
13589;DHT22;6865;52.552;13.434;2023-08-06T10:40:06;19.20;99.90
13589;DHT22;6865;52.552;13.434;2023-08-06T10:42:34;19.20;99.90
13589;DHT22;6865;52.552;13.434;2023-08-06T10:45:14;19.20;99.90
13589;DHT22;6865;52.552;13.434;2023-08-06T10:47:42;19.30;99.90
13589;DHT22;6865;52.552;13.434;2023-08-06T10:50:16;19.30;99.90
13589;DHT22;6865;52.552;13.434;2023-08-06T10:52:45;19.30;99.90
13589;DHT22;6865;52.552;13.434;2023-08-06T10:55:12;19.30;99.90
13589;DHT22;6865;52.552;13.434;2023-08-06T10:57:39;19.30;99.90
13589;DHT22;6865;52.552;13.434;2023-08-06T11:00:07;19.30;99.90
13589;DHT22;6865;52.552;13.434;2023-08-06T11:02:42;19.20;99.90
13589;DHT22;6865;52.552;13.434;2023-08-06T11:05:11;19.20;99.90
13589;DHT22;6865;52.552;13.434;2023-08-06T11:07:38;19.20;99.90
13589;DHT22;6865;52.552;13.434;2023-08-06T11:10:12;19.20;99.90
13589;DHT22;6865;52.552;13.434;2023-08-06T11:12:39;19.20;99.90
13589;DHT22;6865;52.552;13.434;2023-08-06T11:15:07;19.30;99.90
13589;DHT22;6865;52.552;13.434;2023-08-06T11:17:34;19.30;99.90
13589;DHT22;6865;52.552;13.434;2023-08-06T11:20:03;19.30;99.90
13589;DHT22;6865;52.552;13.434;2023-08-06T11:22:31;19.20;99.90
13589;DHT22;6865;52.552;13.434;2023-08-06T11:24:58;19.10;99.90
13589;DHT22;6865;52.552;13.434;2023-08-06T11:27:27;19.10;99.90
13589;DHT22;6865;52.552;13.434;2023-08-06T11:29:55;19.10;99.90
13589;DHT22;6865;52.552;13.434;2023-08-06T11:32:25;19.10;99.90
13589;DHT22;6865;52.552;13.434;2023-08-06T11:34:55;19.10;99.90
13589;DHT22;6865;52.552;13.434;2023-08-06T11:37:26;19.10;99.90
13589;DHT22;6865;52.552;13.434;2023-08-06T11:39:53;19.10;99.90
13589;DHT22;6865;52.552;13.434;2023-08-06T11:42:20;19.10;99.90
13589;DHT22;6865;52.552;13.434;2023-08-06T11:44:50;19.10;99.90
13589;DHT22;6865;52.552;13.434;2023-08-06T11:47:17;19.10;99.90
13589;DHT22;6865;52.552;13.434;2023-08-06T11:49:49;19.10;99.90
13589;DHT22;6865;52.552;13.434;2023-08-06T11:52:23;19.00;99.90
13589;DHT22;6865;52.552;13.434;2023-08-06T11:55:07;19.00;99.90
13589;DHT22;6865;52.552;13.434;2023-08-06T11:57:46;18.90;99.90
13589;DHT22;6865;52.552;13.434;2023-08-06T12:00:14;18.90;99.90
13589;DHT22;6865;52.552;13.434;2023-08-06T12:02:43;18.80;99.90
13589;DHT22;6865;52.552;13.434;2023-08-06T12:05:12;18.60;99.90
13589;DHT22;6865;52.552;13.434;2023-08-06T12:07:48;18.80;99.90
13589;DHT22;6865;52.552;13.434;2023-08-06T12:10:16;18.80;99.90
13589;DHT22;6865;52.552;13.434;2023-08-06T12:12:43;18.80;99.90
13589;DHT22;6865;52.552;13.434;2023-08-06T12:15:10;18.80;99.90
13589;DHT22;6865;52.552;13.434;2023-08-06T12:17:37;18.80;99.90
13589;DHT22;6865;52.552;13.434;2023-08-06T12:20:05;18.80;99.90
13589;DHT22;6865;52.552;13.434;2023-08-06T12:22:35;18.90;99.90
13589;DHT22;6865;52.552;13.434;2023-08-06T12:25:06;19.00;99.90
13589;DHT22;6865;52.552;13.434;2023-08-06T12:27:35;19.00;99.90
13589;DHT22;6865;52.552;13.434;2023-08-06T12:30:03;18.90;99.90
13589;DHT22;6865;52.552;13.434;2023-08-06T12:32:31;19.00;99.90
13589;DHT22;6865;52.552;13.434;2023-08-06T12:34:57;19.00;99.90
13589;DHT22;6865;52.552;13.434;2023-08-06T12:37:25;19.10;99.90
13589;DHT22;6865;52.552;13.434;2023-08-06T12:39:52;19.10;99.90
13589;DHT22;6865;52.552;13.434;2023-08-06T12:42:19;19.10;99.90
13589;DHT22;6865;52.552;13.434;2023-08-06T12:44:45;19.10;99.90
13589;DHT22;6865;52.552;13.434;2023-08-06T12:47:12;19.10;99.90
13589;DHT22;6865;52.552;13.434;2023-08-06T12:49:39;19.20;99.90
13589;DHT22;6865;52.552;13.434;2023-08-06T12:52:05;19.20;99.90
13589;DHT22;6865;52.552;13.434;2023-08-06T12:54:34;19.10;99.90
13589;DHT22;6865;52.552;13.434;2023-08-06T12:57:04;19.10;99.90
13589;DHT22;6865;52.552;13.434;2023-08-06T12:59:32;19.10;99.90
13589;DHT22;6865;52.552;13.434;2023-08-06T13:02:00;19.10;99.90
13589;DHT22;6865;52.552;13.434;2023-08-06T13:04:27;19.00;99.90
13589;DHT22;6865;52.552;13.434;2023-08-06T13:06:54;19.00;99.90
13589;DHT22;6865;52.552;13.434;2023-08-06T13:09:21;18.90;99.90
13589;DHT22;6865;52.552;13.434;2023-08-06T13:11:48;18.90;99.90
13589;DHT22;6865;52.552;13.434;2023-08-06T13:14:16;18.90;99.90
13589;DHT22;6865;52.552;13.434;2023-08-06T13:16:44;18.90;99.90
13589;DHT22;6865;52.552;13.434;2023-08-06T13:19:11;18.80;99.90
13589;DHT22;6865;52.552;13.434;2023-08-06T13:22:04;18.80;99.90
13589;DHT22;6865;52.552;13.434;2023-08-06T13:24:33;18.80;99.90
13589;DHT22;6865;52.552;13.434;2023-08-06T13:27:00;18.70;99.90
13589;DHT22;6865;52.552;13.434;2023-08-06T13:29:27;18.70;99.90
13589;DHT22;6865;52.552;13.434;2023-08-06T13:31:54;18.70;99.90
13589;DHT22;6865;52.552;13.434;2023-08-06T13:34:20;18.70;99.90
13589;DHT22;6865;52.552;13.434;2023-08-06T13:36:47;18.60;99.90
13589;DHT22;6865;52.552;13.434;2023-08-06T13:39:14;18.60;99.90
13589;DHT22;6865;52.552;13.434;2023-08-06T13:41:44;18.50;99.90
13589;DHT22;6865;52.552;13.434;2023-08-06T13:44:11;18.40;99.90
13589;DHT22;6865;52.552;13.434;2023-08-06T13:46:41;18.40;99.90
13589;DHT22;6865;52.552;13.434;2023-08-06T13:49:08;18.30;99.90
13589;DHT22;6865;52.552;13.434;2023-08-06T13:51:34;18.30;99.90
13589;DHT22;6865;52.552;13.434;2023-08-06T13:54:02;18.20;99.90
13589;DHT22;6865;52.552;13.434;2023-08-06T13:56:29;18.20;99.90
13589;DHT22;6865;52.552;13.434;2023-08-06T13:58:58;18.20;99.90
13589;DHT22;6865;52.552;13.434;2023-08-06T14:01:25;18.20;99.90
13589;DHT22;6865;52.552;13.434;2023-08-06T14:04:13;18.20;99.90
13589;DHT22;6865;52.552;13.434;2023-08-06T14:06:39;18.20;99.90
13589;DHT22;6865;52.552;13.434;2023-08-06T14:09:06;18.20;99.90
13589;DHT22;6865;52.552;13.434;2023-08-06T14:11:34;18.10;99.90
13589;DHT22;6865;52.552;13.434;2023-08-06T14:14:01;18.10;99.90
13589;DHT22;6865;52.552;13.434;2023-08-06T14:16:29;18.20;99.90
13589;DHT22;6865;52.552;13.434;2023-08-06T14:18:56;18.00;99.90
13589;DHT22;6865;52.552;13.434;2023-08-06T14:21:23;18.00;99.90
13589;DHT22;6865;52.552;13.434;2023-08-06T14:23:49;18.00;99.90
13589;DHT22;6865;52.552;13.434;2023-08-06T14:26:16;17.90;99.90
13589;DHT22;6865;52.552;13.434;2023-08-06T14:28:43;17.90;99.90
13589;DHT22;6865;52.552;13.434;2023-08-06T14:31:11;17.90;99.90
13589;DHT22;6865;52.552;13.434;2023-08-06T14:33:38;17.90;99.90
13589;DHT22;6865;52.552;13.434;2023-08-06T14:36:05;17.80;99.90
13589;DHT22;6865;52.552;13.434;2023-08-06T14:38:32;17.80;99.90
13589;DHT22;6865;52.552;13.434;2023-08-06T14:41:03;17.70;99.90
13589;DHT22;6865;52.552;13.434;2023-08-06T14:43:30;17.60;99.90
13589;DHT22;6865;52.552;13.434;2023-08-06T14:45:57;17.60;99.90
13589;DHT22;6865;52.552;13.434;2023-08-06T14:48:23;17.50;99.90
13589;DHT22;6865;52.552;13.434;2023-08-06T14:50:50;17.50;99.90
13589;DHT22;6865;52.552;13.434;2023-08-06T14:53:17;17.50;99.90
13589;DHT22;6865;52.552;13.434;2023-08-06T14:55:43;17.40;99.90
13589;DHT22;6865;52.552;13.434;2023-08-06T14:58:10;17.40;99.90
13589;DHT22;6865;52.552;13.434;2023-08-06T15:00:37;17.70;99.90
13589;DHT22;6865;52.552;13.434;2023-08-06T15:03:03;17.30;99.90
13589;DHT22;6865;52.552;13.434;2023-08-06T15:05:30;17.30;99.90
13589;DHT22;6865;52.552;13.434;2023-08-06T15:07:57;17.30;99.90
13589;DHT22;6865;52.552;13.434;2023-08-06T15:10:23;17.30;99.90
13589;DHT22;6865;52.552;13.434;2023-08-06T15:12:54;17.30;99.90
13589;DHT22;6865;52.552;13.434;2023-08-06T15:15:21;17.30;99.90
13589;DHT22;6865;52.552;13.434;2023-08-06T15:17:49;17.40;99.90
13589;DHT22;6865;52.552;13.434;2023-08-06T15:20:16;17.40;99.90
13589;DHT22;6865;52.552;13.434;2023-08-06T15:22:43;17.40;99.90
13589;DHT22;6865;52.552;13.434;2023-08-06T15:25:09;17.50;99.90
13589;DHT22;6865;52.552;13.434;2023-08-06T15:27:36;17.50;99.90
13589;DHT22;6865;52.552;13.434;2023-08-06T15:30:03;17.50;99.90
13589;DHT22;6865;52.552;13.434;2023-08-06T15:32:30;17.50;99.90
13589;DHT22;6865;52.552;13.434;2023-08-06T15:34:57;17.50;99.90
13589;DHT22;6865;52.552;13.434;2023-08-06T15:37:24;17.50;99.90
13589;DHT22;6865;52.552;13.434;2023-08-06T15:39:51;17.50;99.90
13589;DHT22;6865;52.552;13.434;2023-08-06T15:42:18;17.50;99.90